createdAt,value
2023-02-19T00:00:27.450Z,868.29
2023-02-19T00:01:27.396Z,869.60
2023-02-19T00:02:27.374Z,870.07
2023-02-19T00:03:27.389Z,869.64
2023-02-19T00:04:27.359Z,869.65
2023-02-19T00:05:27.331Z,869.02
2023-02-19T00:06:27.348Z,868.62
2023-02-19T00:07:27.288Z,868.11
2023-02-19T00:08:27.309Z,868.00
2023-02-19T00:09:27.326Z,867.92
2023-02-19T00:10:29.166Z,868.20
2023-02-19T00:11:27.266Z,868.31
2023-02-19T00:12:27.273Z,869.42
2023-02-19T00:13:27.236Z,869.72
2023-02-19T00:14:27.263Z,869.82
2023-02-19T00:15:27.286Z,869.61
2023-02-19T00:16:27.195Z,869.60
2023-02-19T00:17:27.177Z,870.16
2023-02-19T00:18:27.205Z,871.06
2023-02-19T00:19:27.181Z,872.31
2023-02-19T00:20:27.186Z,872.55
2023-02-19T00:21:27.144Z,872.31
2023-02-19T00:22:27.130Z,872.50
2023-02-19T00:23:27.129Z,872.64
2023-02-19T00:24:27.119Z,872.56
2023-02-19T00:25:27.113Z,872.81
2023-02-19T00:26:27.103Z,873.21
2023-02-19T00:27:27.059Z,873.76
2023-02-19T00:28:27.102Z,874.15
2023-02-19T00:29:27.084Z,874.37
2023-02-19T00:30:27.072Z,875.14
2023-02-19T00:31:27.125Z,875.71
2023-02-19T00:32:27.025Z,876.31
2023-02-19T00:33:27.021Z,876.05
2023-02-19T00:34:27.012Z,876.01
2023-02-19T00:35:26.987Z,875.51
2023-02-19T00:36:26.971Z,875.36
2023-02-19T00:37:26.959Z,875.40
2023-02-19T00:38:26.983Z,875.65
2023-02-19T00:39:26.983Z,876.24
2023-02-19T00:40:27.942Z,876.54
2023-02-19T00:41:26.956Z,876.94
2023-02-19T00:42:26.908Z,876.97
2023-02-19T00:43:26.895Z,877.54
2023-02-19T00:44:26.923Z,878.38
2023-02-19T00:45:26.877Z,878.71
2023-02-19T00:46:26.967Z,879.60
2023-02-19T00:47:26.833Z,880.21
2023-02-19T00:48:26.850Z,880.11
2023-02-19T00:49:26.860Z,880.10
2023-02-19T00:50:26.845Z,880.32
2023-02-19T00:51:26.798Z,880.50
2023-02-19T00:52:26.786Z,880.38
2023-02-19T00:53:26.786Z,880.27
2023-02-19T00:54:26.795Z,880.09
2023-02-19T00:55:26.873Z,880.47
2023-02-19T00:56:26.757Z,880.18
2023-02-19T00:57:26.732Z,879.78
2023-02-19T00:58:26.746Z,879.11
2023-02-19T00:59:26.714Z,877.96
2023-02-19T01:00:26.717Z,877.58
2023-02-19T01:01:26.779Z,876.56
2023-02-19T01:02:26.686Z,874.82
2023-02-19T01:03:26.679Z,874.00
2023-02-19T01:04:34.492Z,874.05
2023-02-19T01:05:35.146Z,873.56
2023-02-19T01:06:33.963Z,873.74
2023-02-19T01:07:36.413Z,873.99
2023-02-19T01:08:26.597Z,874.80
2023-02-19T01:09:26.624Z,875.04
2023-02-19T01:10:26.581Z,874.77
2023-02-19T01:11:26.562Z,874.99
2023-02-19T01:12:26.560Z,874.93
2023-02-19T01:13:26.540Z,875.97
2023-02-19T01:14:26.561Z,875.98
2023-02-19T01:15:26.529Z,875.97
2023-02-19T01:16:26.608Z,877.11
2023-02-19T01:17:26.499Z,877.42
2023-02-19T01:18:26.497Z,877.68
2023-02-19T01:19:26.493Z,878.08
2023-02-19T01:20:26.497Z,878.60
2023-02-19T01:21:26.480Z,879.14
2023-02-19T01:22:26.448Z,879.87
2023-02-19T01:23:26.440Z,880.79
2023-02-19T01:24:26.447Z,881.01
2023-02-19T01:25:26.649Z,881.09
2023-02-19T01:26:26.746Z,880.98
2023-02-19T01:27:26.411Z,881.05
2023-02-19T01:28:26.392Z,882.64
2023-02-19T01:29:26.412Z,883.29
2023-02-19T01:30:28.173Z,883.09
2023-02-19T01:31:26.417Z,882.67
2023-02-19T01:32:26.314Z,883.08
2023-02-19T01:33:26.333Z,883.30
2023-02-19T01:34:26.332Z,883.72
2023-02-19T01:35:26.341Z,884.42
2023-02-19T01:36:26.269Z,884.78
2023-02-19T01:37:26.373Z,884.51
2023-02-19T01:38:26.266Z,885.22
2023-02-19T01:39:26.491Z,886.42
2023-02-19T01:40:26.276Z,886.64
2023-02-19T01:41:26.493Z,886.84
2023-02-19T01:42:26.264Z,887.05
2023-02-19T01:43:26.264Z,887.36
2023-02-19T01:44:26.203Z,888.10
2023-02-19T01:45:26.455Z,888.60
2023-02-19T01:46:26.465Z,888.37
2023-02-19T01:47:28.008Z,888.39
2023-02-19T01:48:26.147Z,888.20
2023-02-19T01:49:26.178Z,887.83
2023-02-19T01:50:26.115Z,888.36
2023-02-19T01:51:26.163Z,888.03
2023-02-19T01:52:26.115Z,888.22
2023-02-19T01:53:26.089Z,888.18
2023-02-19T01:54:26.077Z,888.51
2023-02-19T01:55:26.076Z,888.37
2023-02-19T01:56:26.061Z,888.10
2023-02-19T01:57:26.041Z,887.76
2023-02-19T01:58:26.057Z,887.64
2023-02-19T01:59:26.048Z,887.41
2023-02-19T02:00:26.010Z,887.63
2023-02-19T02:01:26.023Z,888.19
2023-02-19T02:02:26.002Z,888.17
2023-02-19T02:03:25.970Z,888.39
2023-02-19T02:04:25.988Z,888.56
2023-02-19T02:05:25.959Z,888.24
2023-02-19T02:06:25.947Z,887.97
2023-02-19T02:07:25.938Z,888.04
2023-02-19T02:08:25.918Z,888.75
2023-02-19T02:09:25.910Z,889.02
2023-02-19T02:10:25.897Z,889.10
2023-02-19T02:11:25.908Z,889.34
2023-02-19T02:12:25.869Z,889.27
2023-02-19T02:13:25.858Z,889.51
2023-02-19T02:14:25.880Z,889.22
2023-02-19T02:15:25.839Z,888.24
2023-02-19T02:16:25.923Z,888.28
2023-02-19T02:17:25.843Z,888.08
2023-02-19T02:18:25.823Z,887.15
2023-02-19T02:19:25.797Z,887.12
2023-02-19T02:20:25.784Z,887.36
2023-02-19T02:21:25.785Z,886.87
2023-02-19T02:22:25.757Z,886.50
2023-02-19T02:23:25.743Z,886.80
2023-02-19T02:24:25.746Z,886.99
2023-02-19T02:25:25.736Z,886.68
2023-02-19T02:26:25.733Z,886.20
2023-02-19T02:27:25.720Z,886.19
2023-02-19T02:28:26.025Z,885.94
2023-02-19T02:29:25.687Z,886.06
2023-02-19T02:30:25.726Z,886.49
2023-02-19T02:31:25.771Z,886.33
2023-02-19T02:32:25.645Z,886.99
2023-02-19T02:33:25.645Z,886.78
2023-02-19T02:34:25.646Z,887.36
2023-02-19T02:35:25.617Z,886.98
2023-02-19T02:36:25.588Z,886.39
2023-02-19T02:37:32.624Z,886.41
2023-02-19T02:38:32.611Z,887.26
2023-02-19T02:39:25.544Z,887.00
2023-02-19T02:40:33.561Z,886.01
2023-02-19T02:41:32.550Z,885.81
2023-02-19T02:42:32.551Z,886.05
2023-02-19T02:43:32.565Z,887.00
2023-02-19T02:44:32.524Z,887.66
2023-02-19T02:45:33.055Z,887.46
2023-02-19T02:46:25.501Z,885.85
2023-02-19T02:47:25.482Z,884.70
2023-02-19T02:48:25.484Z,884.19
2023-02-19T02:49:25.462Z,883.47
2023-02-19T02:50:25.463Z,883.84
2023-02-19T02:51:25.423Z,883.10
2023-02-19T02:52:25.455Z,882.31
2023-02-19T02:53:25.416Z,881.94
2023-02-19T02:54:25.416Z,881.80
2023-02-19T02:55:25.394Z,882.19
2023-02-19T02:56:25.380Z,882.54
2023-02-19T02:57:25.385Z,882.74
2023-02-19T02:58:25.369Z,882.73
2023-02-19T02:59:26.229Z,881.44
2023-02-19T03:00:25.324Z,880.82
2023-02-19T03:01:25.397Z,879.09
2023-02-19T03:02:25.434Z,877.98
2023-02-19T03:03:25.296Z,877.74
2023-02-19T03:04:25.284Z,878.01
2023-02-19T03:05:25.299Z,878.30
2023-02-19T03:06:25.327Z,877.71
2023-02-19T03:07:25.288Z,875.68
2023-02-19T03:08:25.240Z,875.03
2023-02-19T03:09:25.244Z,875.63
2023-02-19T03:10:25.223Z,875.90
2023-02-19T03:11:25.218Z,875.89
2023-02-19T03:12:25.195Z,876.47
2023-02-19T03:13:25.183Z,876.09
2023-02-19T03:14:25.192Z,875.13
2023-02-19T03:15:25.170Z,875.28
2023-02-19T03:16:25.457Z,873.99
2023-02-19T03:17:25.149Z,873.81
2023-02-19T03:18:25.133Z,872.89
2023-02-19T03:19:25.136Z,872.38
2023-02-19T03:20:25.140Z,872.68
2023-02-19T03:21:25.095Z,871.46
2023-02-19T03:22:25.116Z,870.05
2023-02-19T03:23:25.068Z,869.53
2023-02-19T03:24:25.086Z,869.60
2023-02-19T03:25:25.045Z,869.45
2023-02-19T03:26:25.037Z,869.56
2023-02-19T03:27:25.024Z,869.21
2023-02-19T03:28:25.032Z,869.04
2023-02-19T03:29:25.014Z,869.04
2023-02-19T03:30:25.004Z,869.05
2023-02-19T03:31:25.158Z,870.56
2023-02-19T03:32:24.970Z,869.41
2023-02-19T03:33:24.963Z,871.77
2023-02-19T03:34:26.193Z,872.89
2023-02-19T03:35:24.940Z,874.49
2023-02-19T03:36:24.926Z,876.12
2023-02-19T03:37:24.916Z,877.26
2023-02-19T03:38:24.889Z,877.97
2023-02-19T03:39:24.919Z,878.45
2023-02-19T03:40:24.883Z,879.78
2023-02-19T03:41:24.862Z,880.65
2023-02-19T03:42:24.864Z,880.62
2023-02-19T03:43:24.858Z,878.52
2023-02-19T03:44:24.875Z,878.35
2023-02-19T03:45:24.815Z,878.92
2023-02-19T03:46:24.822Z,879.17
2023-02-19T03:47:24.785Z,879.16
2023-02-19T03:48:24.809Z,879.27
2023-02-19T03:49:24.802Z,880.07
2023-02-19T03:50:24.775Z,877.31
2023-02-19T03:51:24.769Z,876.76
2023-02-19T03:52:24.763Z,877.11
2023-02-19T03:53:24.748Z,878.26
2023-02-19T03:54:24.708Z,879.43
2023-02-19T03:55:24.719Z,878.83
2023-02-19T03:56:24.690Z,879.00
2023-02-19T03:57:24.721Z,879.46
2023-02-19T03:58:24.673Z,879.35
2023-02-19T03:59:24.664Z,880.07
2023-02-19T04:00:24.654Z,880.68
2023-02-19T04:01:24.681Z,879.70
2023-02-19T04:02:24.644Z,878.90
2023-02-19T04:03:24.644Z,879.78
2023-02-19T04:04:24.637Z,879.89
2023-02-19T04:05:24.594Z,879.51
2023-02-19T04:06:24.602Z,880.50
2023-02-19T04:07:24.577Z,880.96
2023-02-19T04:08:24.594Z,880.90
2023-02-19T04:09:24.555Z,880.73
2023-02-19T04:10:24.541Z,881.26
2023-02-19T04:11:24.538Z,879.76
2023-02-19T04:12:24.545Z,878.52
2023-02-19T04:13:24.530Z,877.79
2023-02-19T04:14:32.511Z,876.19
2023-02-19T04:15:24.494Z,872.87
2023-02-19T04:16:24.503Z,872.58
2023-02-19T04:17:32.481Z,872.66
2023-02-19T04:18:24.469Z,871.83
2023-02-19T04:19:24.459Z,872.39
2023-02-19T04:20:24.439Z,872.26
2023-02-19T04:21:24.424Z,872.18
2023-02-19T04:22:24.414Z,872.55
2023-02-19T04:23:24.399Z,873.27
2023-02-19T04:24:24.402Z,872.78
2023-02-19T04:25:24.371Z,872.52
2023-02-19T04:26:24.382Z,873.45
2023-02-19T04:27:24.360Z,874.70
2023-02-19T04:28:24.364Z,875.10
2023-02-19T04:29:24.326Z,875.10
2023-02-19T04:30:24.385Z,874.84
2023-02-19T04:31:24.380Z,873.19
2023-02-19T04:32:24.337Z,872.40
2023-02-19T04:33:24.305Z,873.99
2023-02-19T04:34:24.283Z,874.85
2023-02-19T04:35:24.286Z,873.88
2023-02-19T04:36:24.240Z,873.35
2023-02-19T04:37:24.238Z,873.48
2023-02-19T04:38:24.230Z,874.29
2023-02-19T04:39:24.206Z,872.82
2023-02-19T04:40:24.245Z,871.50
2023-02-19T04:41:24.187Z,870.54
2023-02-19T04:42:24.176Z,871.48
2023-02-19T04:43:24.185Z,872.29
2023-02-19T04:44:24.148Z,873.06
2023-02-19T04:45:24.148Z,873.38
2023-02-19T04:46:24.177Z,873.69
2023-02-19T04:47:24.151Z,874.73
2023-02-19T04:48:24.104Z,875.57
2023-02-19T04:49:24.107Z,875.98
2023-02-19T04:50:24.084Z,876.63
2023-02-19T04:51:24.084Z,877.86
2023-02-19T04:52:24.068Z,879.21
2023-02-19T04:53:24.046Z,877.97
2023-02-19T04:54:24.056Z,877.04
2023-02-19T04:55:24.048Z,876.67
2023-02-19T04:56:24.017Z,876.41
2023-02-19T04:57:24.004Z,876.65
2023-02-19T04:58:23.988Z,876.13
2023-02-19T04:59:23.993Z,875.16
2023-02-19T05:00:23.987Z,874.61
2023-02-19T05:01:24.003Z,874.00
2023-02-19T05:02:23.945Z,872.24
2023-02-19T05:03:23.932Z,872.20
2023-02-19T05:04:24.004Z,872.99
2023-02-19T05:05:23.908Z,874.18
2023-02-19T05:06:23.908Z,874.83
2023-02-19T05:07:23.887Z,874.56
2023-02-19T05:08:23.901Z,875.75
2023-02-19T05:09:23.880Z,875.50
2023-02-19T05:10:23.861Z,874.09
2023-02-19T05:11:23.849Z,874.33
2023-02-19T05:12:23.850Z,873.98
2023-02-19T05:13:23.826Z,874.40
2023-02-19T05:14:23.831Z,874.43
2023-02-19T05:15:23.798Z,874.92
2023-02-19T05:16:23.778Z,875.21
2023-02-19T05:17:23.782Z,875.22
2023-02-19T05:18:23.770Z,874.92
2023-02-19T05:19:23.771Z,874.77
2023-02-19T05:20:23.739Z,874.86
2023-02-19T05:21:23.734Z,875.06
2023-02-19T05:22:23.715Z,874.06
2023-02-19T05:23:23.713Z,874.15
2023-02-19T05:24:23.713Z,875.30
2023-02-19T05:25:23.688Z,877.02
2023-02-19T05:26:23.681Z,878.67
2023-02-19T05:27:23.660Z,879.46
2023-02-19T05:28:23.660Z,880.53
2023-02-19T05:29:23.669Z,880.95
2023-02-19T05:30:23.685Z,882.69
2023-02-19T05:31:23.796Z,883.59
2023-02-19T05:32:23.629Z,884.34
2023-02-19T05:33:23.598Z,884.66
2023-02-19T05:34:23.618Z,885.80
2023-02-19T05:35:23.596Z,886.62
2023-02-19T05:36:23.574Z,886.03
2023-02-19T05:37:23.556Z,886.97
2023-02-19T05:38:23.561Z,887.75
2023-02-19T05:39:23.541Z,887.30
2023-02-19T05:40:23.514Z,886.29
2023-02-19T05:41:23.510Z,886.06
2023-02-19T05:42:23.495Z,885.96
2023-02-19T05:43:23.491Z,885.55
2023-02-19T05:44:23.511Z,882.45
2023-02-19T05:45:23.450Z,881.01
2023-02-19T05:46:23.525Z,880.56
2023-02-19T05:47:30.474Z,880.72
2023-02-19T05:48:30.439Z,881.02
2023-02-19T05:49:31.956Z,881.42
2023-02-19T05:50:30.424Z,881.06
2023-02-19T05:51:31.431Z,881.10
2023-02-19T05:52:31.682Z,881.66
2023-02-19T05:53:30.388Z,879.72
2023-02-19T05:54:23.379Z,879.04
2023-02-19T05:55:23.623Z,878.70
2023-02-19T05:56:23.329Z,877.92
2023-02-19T05:57:23.320Z,878.00
2023-02-19T05:58:23.323Z,877.45
2023-02-19T05:59:23.322Z,877.81
2023-02-19T06:00:23.300Z,877.25
2023-02-19T06:01:23.322Z,877.01
2023-02-19T06:02:24.055Z,875.97
2023-02-19T06:03:23.254Z,876.61
2023-02-19T06:04:23.281Z,875.86
2023-02-19T06:05:23.235Z,876.11
2023-02-19T06:06:23.219Z,875.76
2023-02-19T06:07:23.224Z,877.47
2023-02-19T06:08:23.216Z,878.81
2023-02-19T06:09:23.213Z,882.02
2023-02-19T06:10:23.182Z,882.29
2023-02-19T06:11:23.170Z,884.36
2023-02-19T06:12:23.183Z,885.26
2023-02-19T06:13:23.503Z,886.39
2023-02-19T06:14:23.158Z,887.57
2023-02-19T06:15:23.862Z,887.48
2023-02-19T06:16:23.159Z,887.25
2023-02-19T06:17:23.091Z,888.29
2023-02-19T06:18:23.094Z,888.39
2023-02-19T06:19:23.123Z,889.38
2023-02-19T06:20:26.028Z,889.76
2023-02-19T06:21:23.061Z,890.24
2023-02-19T06:22:23.049Z,891.76
2023-02-19T06:23:23.029Z,892.39
2023-02-19T06:24:23.039Z,891.17
2023-02-19T06:25:23.166Z,891.46
2023-02-19T06:26:23.038Z,891.97
2023-02-19T06:27:23.008Z,892.55
2023-02-19T06:28:22.991Z,893.72
2023-02-19T06:29:22.957Z,892.78
2023-02-19T06:30:22.992Z,892.22
2023-02-19T06:31:23.071Z,892.19
2023-02-19T06:32:23.065Z,892.45
2023-02-19T06:33:22.942Z,891.77
2023-02-19T06:34:22.947Z,891.69
2023-02-19T06:35:22.909Z,891.91
2023-02-19T06:36:22.898Z,891.16
2023-02-19T06:37:22.887Z,889.53
2023-02-19T06:38:22.882Z,889.30
2023-02-19T06:39:22.851Z,889.37
2023-02-19T06:40:22.875Z,888.70
2023-02-19T06:41:22.825Z,888.54
2023-02-19T06:42:22.828Z,888.29
2023-02-19T06:43:23.171Z,887.90
2023-02-19T06:44:22.855Z,888.60
2023-02-19T06:45:22.761Z,889.31
2023-02-19T06:46:22.828Z,889.83
2023-02-19T06:47:25.343Z,890.75
2023-02-19T06:48:22.791Z,891.51
2023-02-19T06:49:22.772Z,891.63
2023-02-19T06:50:23.164Z,891.60
2023-02-19T06:51:22.741Z,891.16
2023-02-19T06:52:22.753Z,891.06
2023-02-19T06:53:22.724Z,891.91
2023-02-19T06:54:22.708Z,892.53
2023-02-19T06:55:23.143Z,891.72
2023-02-19T06:56:22.958Z,891.85
2023-02-19T06:57:22.661Z,892.03
2023-02-19T06:58:22.635Z,892.34
2023-02-19T06:59:22.628Z,892.81
2023-02-19T07:00:22.652Z,893.29
2023-02-19T07:01:22.610Z,893.50
2023-02-19T07:02:22.596Z,893.94
2023-02-19T07:03:22.600Z,893.79
2023-02-19T07:04:22.659Z,894.17
2023-02-19T07:05:23.324Z,894.44
2023-02-19T07:06:22.553Z,894.45
2023-02-19T07:07:22.548Z,896.35
2023-02-19T07:08:22.528Z,899.18
2023-02-19T07:09:22.552Z,900.55
2023-02-19T07:10:22.672Z,902.79
2023-02-19T07:11:22.483Z,902.71
2023-02-19T07:12:22.496Z,903.24
2023-02-19T07:13:22.515Z,904.45
2023-02-19T07:14:22.479Z,903.69
2023-02-19T07:15:22.451Z,903.16
2023-02-19T07:16:22.764Z,902.44
2023-02-19T07:17:22.471Z,901.63
2023-02-19T07:18:22.409Z,899.06
2023-02-19T07:19:22.423Z,896.81
2023-02-19T07:20:22.383Z,897.30
2023-02-19T07:21:22.384Z,896.75
2023-02-19T07:22:22.373Z,898.10
2023-02-19T07:23:25.110Z,898.92
2023-02-19T07:24:29.372Z,898.64
2023-02-19T07:25:29.387Z,896.82
2023-02-19T07:26:29.857Z,896.53
2023-02-19T07:27:22.291Z,895.91
2023-02-19T07:28:29.316Z,896.92
2023-02-19T07:29:22.272Z,899.40
2023-02-19T07:30:22.310Z,902.63
2023-02-19T07:31:22.391Z,903.96
2023-02-19T07:32:22.266Z,902.32
2023-02-19T07:33:22.235Z,902.12
2023-02-19T07:34:22.237Z,901.49
2023-02-19T07:35:22.236Z,903.58
2023-02-19T07:36:22.540Z,908.64
2023-02-19T07:37:22.199Z,913.27
2023-02-19T07:38:22.247Z,914.57
2023-02-19T07:39:22.194Z,915.75
2023-02-19T07:40:22.226Z,910.78
2023-02-19T07:41:22.184Z,905.88
2023-02-19T07:42:22.161Z,903.10
2023-02-19T07:43:29.849Z,900.64
2023-02-19T07:44:22.129Z,897.67
2023-02-19T07:45:22.386Z,896.01
2023-02-19T07:46:22.106Z,895.43
2023-02-19T07:47:22.121Z,896.19
2023-02-19T07:48:22.097Z,898.20
2023-02-19T07:49:22.114Z,900.39
2023-02-19T07:50:22.803Z,903.02
2023-02-19T07:51:22.133Z,904.50
2023-02-19T07:52:22.071Z,905.24
2023-02-19T07:53:22.063Z,904.75
2023-02-19T07:54:22.071Z,904.56
2023-02-19T07:55:22.140Z,907.52
2023-02-19T07:56:22.000Z,910.54
2023-02-19T07:57:22.007Z,908.31
2023-02-19T07:58:21.988Z,906.43
2023-02-19T07:59:22.041Z,907.98
2023-02-19T08:00:21.959Z,910.05
2023-02-19T08:01:23.961Z,912.90
2023-02-19T08:02:22.247Z,916.98
2023-02-19T08:03:24.886Z,916.08
2023-02-19T08:04:21.943Z,910.59
2023-02-19T08:05:21.918Z,909.65
2023-02-19T08:06:23.726Z,910.57
2023-02-19T08:07:21.930Z,912.55
2023-02-19T08:08:29.759Z,909.35
2023-02-19T08:09:21.838Z,910.00
2023-02-19T08:10:24.620Z,911.42
2023-02-19T08:11:21.836Z,911.80
2023-02-19T08:12:22.162Z,914.53
2023-02-19T08:13:22.160Z,919.63
2023-02-19T08:14:21.818Z,920.13
2023-02-19T08:15:22.533Z,919.83
2023-02-19T08:16:33.108Z,924.17
2023-02-19T08:17:22.772Z,928.47
2023-02-19T08:18:22.736Z,933.88
2023-02-19T08:19:21.739Z,933.13
2023-02-19T08:20:21.747Z,926.31
2023-02-19T08:21:22.107Z,917.33
2023-02-19T08:22:21.698Z,913.49
2023-02-19T08:23:21.700Z,915.46
2023-02-19T08:24:21.695Z,919.03
2023-02-19T08:25:21.650Z,923.64
2023-02-19T08:26:21.651Z,929.16
2023-02-19T08:27:24.438Z,932.48
2023-02-19T08:28:24.489Z,936.32
2023-02-19T08:29:23.426Z,944.28
2023-02-19T08:30:21.987Z,955.69
2023-02-19T08:31:24.383Z,958.47
2023-02-19T08:32:21.899Z,949.61
2023-02-19T08:33:21.855Z,940.47
2023-02-19T08:34:21.894Z,931.36
2023-02-19T08:35:21.537Z,932.31
2023-02-19T08:36:21.913Z,930.32
2023-02-19T08:37:23.401Z,928.15
2023-02-19T08:38:22.350Z,922.87
2023-02-19T08:39:21.511Z,926.65
2023-02-19T08:40:21.511Z,944.33
2023-02-19T08:41:21.788Z,956.52
2023-02-19T08:42:21.448Z,962.10
2023-02-19T08:43:22.389Z,957.68
2023-02-19T08:44:23.326Z,956.91
2023-02-19T08:45:24.166Z,950.01
2023-02-19T08:46:21.535Z,959.24
2023-02-19T08:47:21.424Z,966.46
2023-02-19T08:48:21.707Z,967.36
2023-02-19T08:49:24.168Z,962.48
2023-02-19T08:50:21.356Z,955.44
2023-02-19T08:51:21.351Z,957.64
2023-02-19T08:52:23.198Z,964.38
2023-02-19T08:53:21.356Z,967.20
2023-02-19T08:54:21.595Z,965.10
2023-02-19T08:55:21.338Z,963.39
2023-02-19T08:56:23.131Z,963.82
2023-02-19T08:57:21.637Z,968.97
2023-02-19T08:58:21.617Z,970.56
2023-02-19T08:59:21.269Z,972.71
2023-02-19T09:00:28.776Z,973.71
2023-02-19T09:01:28.329Z,974.77
2023-02-19T09:02:28.282Z,975.16
2023-02-19T09:03:28.230Z,975.35
2023-02-19T09:04:28.249Z,971.20
2023-02-19T09:05:28.769Z,963.30
2023-02-19T09:06:21.167Z,972.62
2023-02-19T09:07:21.158Z,978.31
2023-02-19T09:08:21.169Z,977.04
2023-02-19T09:09:21.152Z,965.23
2023-02-19T09:10:21.147Z,971.65
2023-02-19T09:11:21.136Z,972.11
2023-02-19T09:12:21.104Z,966.37
2023-02-19T09:13:21.088Z,966.35
2023-02-19T09:14:21.098Z,963.47
2023-02-19T09:15:21.088Z,966.02
2023-02-19T09:16:21.061Z,970.15
2023-02-19T09:17:21.057Z,978.17
2023-02-19T09:18:21.029Z,976.09
2023-02-19T09:19:21.041Z,974.06
2023-02-19T09:20:21.021Z,971.69
2023-02-19T09:21:21.004Z,971.73
2023-02-19T09:22:21.056Z,974.85
2023-02-19T09:23:20.995Z,976.21
2023-02-19T09:24:20.984Z,979.58
2023-02-19T09:25:20.963Z,981.39
2023-02-19T09:26:20.945Z,982.18
2023-02-19T09:27:20.934Z,982.54
2023-02-19T09:28:20.921Z,983.74
2023-02-19T09:29:21.244Z,985.68
2023-02-19T09:30:20.912Z,985.52
2023-02-19T09:31:20.936Z,986.04
2023-02-19T09:32:20.878Z,990.00
2023-02-19T09:33:20.878Z,993.32
2023-02-19T09:34:20.858Z,995.47
2023-02-19T09:35:20.878Z,994.88
2023-02-19T09:36:20.832Z,997.26
2023-02-19T09:37:20.817Z,997.30
2023-02-19T09:38:20.832Z,996.93
2023-02-19T09:39:20.808Z,995.86
2023-02-19T09:40:22.505Z,992.09
2023-02-19T09:41:20.758Z,991.38
2023-02-19T09:42:20.758Z,991.31
2023-02-19T09:43:20.784Z,989.51
2023-02-19T09:44:20.749Z,989.01
2023-02-19T09:45:20.720Z,990.90
2023-02-19T09:46:20.740Z,992.16
2023-02-19T09:47:20.714Z,995.91
2023-02-19T09:48:21.001Z,995.95
2023-02-19T09:49:20.669Z,986.95
2023-02-19T09:50:20.695Z,963.24
2023-02-19T09:51:20.650Z,942.16
2023-02-19T09:52:20.921Z,932.74
2023-02-19T09:53:20.649Z,940.60
2023-02-19T09:54:20.664Z,939.12
2023-02-19T09:55:20.623Z,924.27
2023-02-19T09:56:20.665Z,912.29
2023-02-19T09:57:20.612Z,907.44
2023-02-19T09:58:20.606Z,908.60
2023-02-19T09:59:20.634Z,909.20
2023-02-19T10:00:20.566Z,913.15
2023-02-19T10:01:20.557Z,934.46
2023-02-19T10:02:20.566Z,960.57
2023-02-19T10:03:20.628Z,973.46
2023-02-19T10:04:20.517Z,982.06
2023-02-19T10:05:20.542Z,991.10
2023-02-19T10:06:20.508Z,992.55
2023-02-19T10:07:20.472Z,968.74
2023-02-19T10:08:20.463Z,965.67
2023-02-19T10:09:20.491Z,971.23
2023-02-19T10:10:21.307Z,975.31
2023-02-19T10:11:20.423Z,965.08
2023-02-19T10:12:20.409Z,953.12
2023-02-19T10:13:25.426Z,953.07
2023-02-19T10:14:20.410Z,952.43
2023-02-19T10:15:20.378Z,918.40
2023-02-19T10:16:20.414Z,912.99
2023-02-19T10:17:20.353Z,946.00
2023-02-19T10:18:20.385Z,963.90
2023-02-19T10:19:20.390Z,976.26
2023-02-19T10:20:20.347Z,991.06
2023-02-19T10:21:20.329Z,999.47
2023-02-19T10:22:20.333Z,1003.22
2023-02-19T10:23:20.594Z,1002.82
2023-02-19T10:24:27.321Z,982.84
2023-02-19T10:25:27.274Z,932.44
2023-02-19T10:26:20.284Z,899.15
2023-02-19T10:27:20.227Z,918.77
2023-02-19T10:28:30.304Z,934.62
2023-02-19T10:29:20.211Z,950.64
2023-02-19T10:30:20.217Z,953.81
2023-02-19T10:31:20.930Z,944.16
2023-02-19T10:32:20.214Z,915.17
2023-02-19T10:33:20.187Z,898.10
2023-02-19T10:34:22.485Z,897.48
2023-02-19T10:35:20.162Z,906.61
2023-02-19T10:36:20.125Z,921.99
2023-02-19T10:37:20.121Z,938.32
2023-02-19T10:38:27.164Z,952.57
2023-02-19T10:39:20.077Z,973.59
2023-02-19T10:40:27.744Z,977.91
2023-02-19T10:41:20.063Z,960.25
2023-02-19T10:42:20.053Z,929.64
2023-02-19T10:43:20.054Z,912.01
2023-02-19T10:44:20.033Z,917.59
2023-02-19T10:45:20.031Z,934.79
2023-02-19T10:46:20.062Z,929.66
2023-02-19T10:47:20.026Z,913.04
2023-02-19T10:48:20.028Z,916.51
2023-02-19T10:49:19.986Z,922.28
2023-02-19T10:50:19.968Z,917.89
2023-02-19T10:51:19.965Z,911.90
2023-02-19T10:52:19.966Z,915.24
2023-02-19T10:53:19.950Z,909.40
2023-02-19T10:54:19.983Z,898.59
2023-02-19T10:55:20.198Z,902.72
2023-02-19T10:56:19.886Z,913.08
2023-02-19T10:57:19.878Z,920.74
2023-02-19T10:58:19.866Z,927.35
2023-02-19T10:59:19.875Z,926.29
2023-02-19T11:00:19.847Z,922.21
2023-02-19T11:01:21.956Z,942.17
2023-02-19T11:02:19.843Z,966.13
2023-02-19T11:03:19.859Z,963.15
2023-02-19T11:04:24.988Z,951.78
2023-02-19T11:05:19.795Z,932.73
2023-02-19T11:06:19.859Z,928.46
2023-02-19T11:07:19.797Z,969.70
2023-02-19T11:08:19.753Z,1000.40
2023-02-19T11:09:19.763Z,1008.31
2023-02-19T11:10:19.775Z,1011.92
2023-02-19T11:11:19.719Z,1011.87
2023-02-19T11:12:24.479Z,1010.39
2023-02-19T11:13:19.710Z,1008.32
2023-02-19T11:14:19.710Z,1006.42
2023-02-19T11:15:20.015Z,1004.16
2023-02-19T11:16:19.700Z,998.70
2023-02-19T11:17:19.647Z,995.27
2023-02-19T11:18:19.656Z,992.89
2023-02-19T11:19:19.659Z,1001.49
2023-02-19T11:20:19.633Z,1007.01
2023-02-19T11:21:19.599Z,1007.98
2023-02-19T11:22:19.603Z,1007.93
2023-02-19T11:23:19.619Z,1010.63
2023-02-19T11:24:19.579Z,1012.63
2023-02-19T11:25:19.581Z,1016.47
2023-02-19T11:26:19.551Z,1022.51
2023-02-19T11:27:19.534Z,1027.74
2023-02-19T11:28:19.530Z,1027.05
2023-02-19T11:29:19.527Z,1022.28
2023-02-19T11:30:19.517Z,1019.09
2023-02-19T11:31:40.556Z,1019.75
2023-02-19T11:32:19.529Z,1018.82
2023-02-19T11:33:19.460Z,1022.31
2023-02-19T11:34:19.480Z,1023.31
2023-02-19T11:35:19.448Z,1025.21
2023-02-19T11:36:19.430Z,1024.77
2023-02-19T11:37:19.426Z,1023.92
2023-02-19T11:38:19.423Z,1023.37
2023-02-19T11:39:21.234Z,1024.39
2023-02-19T11:40:21.423Z,1023.09
2023-02-19T11:41:19.429Z,1020.39
2023-02-19T11:42:19.395Z,1017.65
2023-02-19T11:43:19.370Z,1012.51
2023-02-19T11:44:19.758Z,1003.83
2023-02-19T11:45:19.349Z,1001.77
2023-02-19T11:46:22.404Z,1001.76
2023-02-19T11:47:19.307Z,1004.11
2023-02-19T11:48:19.280Z,1009.50
2023-02-19T11:49:21.407Z,1015.51
2023-02-19T11:50:19.639Z,1015.23
2023-02-19T11:51:33.419Z,1018.00
2023-02-19T11:52:19.242Z,1019.61
2023-02-19T11:53:19.238Z,1020.51
2023-02-19T11:54:19.240Z,1020.12
2023-02-19T11:55:21.099Z,1018.47
2023-02-19T11:56:19.188Z,1018.85
2023-02-19T11:57:19.539Z,1018.26
2023-02-19T11:58:19.168Z,1016.48
2023-02-19T11:59:19.178Z,1014.61
2023-02-19T12:00:19.149Z,1014.28
2023-02-19T12:01:19.148Z,1007.12
2023-02-19T12:02:19.183Z,1002.44
2023-02-19T12:03:19.118Z,1000.16
2023-02-19T12:04:19.272Z,1005.68
2023-02-19T12:05:19.128Z,1004.13
2023-02-19T12:06:19.093Z,1004.38
2023-02-19T12:07:19.069Z,1001.59
2023-02-19T12:08:19.065Z,994.67
2023-02-19T12:09:19.144Z,986.84
2023-02-19T12:10:19.042Z,985.60
2023-02-19T12:11:19.037Z,985.88
2023-02-19T12:12:26.537Z,981.87
2023-02-19T12:13:26.051Z,981.16
2023-02-19T12:14:31.045Z,978.04
2023-02-19T12:15:29.006Z,974.28
2023-02-19T12:16:27.205Z,956.04
2023-02-19T12:17:25.988Z,940.16
2023-02-19T12:18:18.930Z,930.15
2023-02-19T12:19:18.941Z,915.87
2023-02-19T12:20:18.912Z,909.21
2023-02-19T12:21:18.900Z,909.63
2023-02-19T12:22:18.893Z,914.27
2023-02-19T12:23:18.901Z,916.32
2023-02-19T12:24:18.908Z,919.17
2023-02-19T12:25:18.905Z,922.85
2023-02-19T12:26:18.860Z,932.47